Terminal Aerodrome Forecast
Issued by NWS Cheyenne, WY

Home | Current Version | Previous Version | Text Only | Print | Product List | Glossary On
Versions: 1 2 3 4 5 6 7 8 9 10 11 12 13 14 15 16 17 18 19
000
FTUS45 KCYS 270757 CCA
TAFCYS
TAF COR
KCYS 270757Z 2708/2806 25007KT P6SM SCT250
     FM271500 23012G22KT P6SM BKN150
     FM280100 26009KT P6SM VCSH SCT040 BKN070=

USA.gov is the U.S. government's official web portal to all federal, state and local government web resources and services.